createdAt,value
2022-08-05T00:02:16.026Z,99110.81
2022-08-05T00:05:05.686Z,99135.97
2022-08-05T00:07:59.799Z,99151.94
2022-08-05T00:10:48.680Z,99149.72
2022-08-05T00:13:40.046Z,99152.88
2022-08-05T00:16:36.452Z,99168.00
2022-08-05T00:19:44.159Z,99163.31
2022-08-05T00:22:47.117Z,99157.19
2022-08-05T00:25:47.106Z,99159.41
2022-08-05T00:28:35.146Z,99169.22
2022-08-05T00:31:54.184Z,99164.53
2022-08-05T00:34:53.952Z,99168.25
2022-08-05T00:37:53.349Z,99165.91
2022-08-05T00:40:53.210Z,99169.78
2022-08-05T00:43:41.613Z,99167.44
2022-08-05T00:46:36.940Z,99168.91
2022-08-05T00:49:44.391Z,99172.34
2022-08-05T00:52:39.057Z,99172.34
2022-08-05T00:55:42.337Z,99177.34
2022-08-05T00:58:30.181Z,99164.34
2022-08-05T01:01:24.765Z,99169.00
2022-08-05T01:04:29.709Z,99168.66
2022-08-05T01:07:18.702Z,99169.13
2022-08-05T01:10:09.578Z,99160.78
2022-08-05T01:13:13.261Z,99164.66
2022-08-05T01:16:20.999Z,99161.31
2022-08-05T01:19:36.755Z,99144.09
2022-08-05T01:23:14.311Z,99137.50
2022-08-05T01:26:27.810Z,99118.41
2022-08-05T01:29:24.196Z,99092.72
2022-08-05T01:32:18.674Z,99100.19
2022-08-05T01:35:11.559Z,99110.88
2022-08-05T01:38:24.662Z,99108.53
2022-08-05T01:41:21.917Z,99109.28
2022-08-05T01:44:11.586Z,99112.75
2022-08-05T01:47:05.304Z,99107.75
2022-08-05T01:50:01.567Z,99106.19
2022-08-05T01:52:51.366Z,99088.31
2022-08-05T01:55:41.052Z,99087.94
2022-08-05T01:58:40.944Z,99078.84
2022-08-05T02:01:40.535Z,99084.84
2022-08-05T02:04:32.082Z,99075.72
2022-08-05T02:07:22.209Z,99068.84
2022-08-05T02:10:11.296Z,99070.38
2022-08-05T02:13:15.835Z,99069.25
2022-08-05T02:16:08.510Z,99082.59
2022-08-05T02:19:15.170Z,99080.63
2022-08-05T02:22:25.893Z,99088.19
2022-08-05T02:25:18.896Z,99072.84
2022-08-05T02:28:12.088Z,99088.06
2022-08-05T02:31:08.300Z,99104.53
2022-08-05T02:34:10.023Z,99104.53
2022-08-05T02:37:01.447Z,99113.31
2022-08-05T02:39:54.597Z,99107.53
2022-08-05T02:42:43.014Z,99106.41
2022-08-05T02:45:52.452Z,99117.53
2022-08-05T02:48:41.916Z,99110.31
2022-08-05T02:52:02.756Z,99111.53
2022-08-05T02:54:42.177Z,99116.88
2022-08-05T02:58:10.044Z,99123.00
2022-08-05T03:00:41.554Z,99119.53
2022-08-05T03:04:02.543Z,99123.00
2022-08-05T03:06:57.161Z,99126.75
2022-08-05T03:09:51.714Z,99135.56
2022-08-05T03:12:42.244Z,99140.88
2022-08-05T03:15:30.609Z,99135.22
2022-08-05T03:18:29.791Z,99135.97
2022-08-05T03:21:17.697Z,99138.22
2022-08-05T03:24:06.450Z,99156.44
2022-08-05T03:26:55.785Z,99157.22
2022-08-05T03:30:08.680Z,99167.13
2022-08-05T03:32:52.312Z,99169.38
2022-08-05T03:35:41.863Z,99166.69
2022-08-05T03:38:33.162Z,99139.56
2022-08-05T03:41:25.086Z,99129.22
2022-08-05T03:44:12.492Z,99122.66
2022-08-05T03:47:08.515Z,99135.22
2022-08-05T03:50:01.259Z,99177.91
2022-08-05T03:55:52.579Z,99225.19
2022-08-05T03:56:17.953Z,99237.59
2022-08-05T03:59:26.153Z,99234.38
2022-08-05T04:02:39.168Z,99253.38
2022-08-05T04:05:33.389Z,99280.84
2022-08-05T04:08:34.790Z,99270.84
2022-08-05T04:11:24.617Z,99261.63
2022-08-05T04:14:30.420Z,99288.03
2022-08-05T04:17:20.451Z,99297.69
2022-08-05T04:20:09.640Z,99328.00
2022-08-05T04:23:01.867Z,99340.13
2022-08-05T04:26:00.589Z,99349.56
2022-08-05T04:28:51.118Z,99362.66
2022-08-05T04:31:39.993Z,99360.63
2022-08-05T04:34:32.347Z,99357.31
2022-08-05T04:37:23.078Z,99348.19
2022-08-05T04:40:30.159Z,99354.19
2022-08-05T04:43:18.151Z,99346.84
2022-08-05T04:46:09.872Z,99346.06
2022-08-05T04:48:58.009Z,99334.16
2022-08-05T04:51:47.943Z,99333.06
2022-08-05T04:54:49.466Z,99346.06
2022-08-05T04:57:37.999Z,99354.84
2022-08-05T05:00:26.058Z,99375.41
2022-08-05T05:03:14.072Z,99387.47
2022-08-05T05:06:38.712Z,99359.91
2022-08-05T05:09:20.750Z,99370.16
2022-08-05T05:12:10.311Z,99376.69
2022-08-05T05:14:59.209Z,99369.13
2022-08-05T05:17:56.314Z,99390.47
2022-08-05T05:20:46.071Z,99396.47
2022-08-05T05:23:39.385Z,99388.34
2022-08-05T05:26:43.262Z,99392.00
2022-08-05T05:29:40.864Z,99399.97
2022-08-05T05:32:42.059Z,99406.81
2022-08-05T05:35:38.090Z,99420.78
2022-08-05T05:38:27.941Z,99432.09
2022-08-05T05:41:16.420Z,99417.06
2022-08-05T05:44:35.693Z,99397.81
2022-08-05T05:47:21.983Z,99394.22
2022-08-05T05:50:10.731Z,99395.78
2022-08-05T05:53:20.838Z,99398.88
2022-08-05T05:56:09.685Z,99395.13
2022-08-05T05:58:57.090Z,99402.84
2022-08-05T06:01:57.164Z,99393.41
2022-08-05T06:04:49.144Z,99378.34
2022-08-05T06:07:41.271Z,99375.56
2022-08-05T06:10:36.679Z,99377.13
2022-08-05T06:13:40.521Z,99374.91
2022-08-05T06:16:37.669Z,99363.91
2022-08-05T06:19:34.501Z,99368.50
2022-08-05T06:22:25.991Z,99362.53
2022-08-05T06:25:25.259Z,99366.75
2022-08-05T06:28:21.943Z,99359.41
2022-08-05T06:31:11.110Z,99342.31
2022-08-05T06:34:09.105Z,99353.56
2022-08-05T06:36:58.782Z,99355.34
2022-08-05T06:39:46.442Z,99347.34
2022-08-05T06:42:33.923Z,99356.13
2022-08-05T06:45:44.507Z,99340.25
2022-08-05T06:48:53.216Z,99334.16
2022-08-05T06:51:40.887Z,99331.16
2022-08-05T06:54:29.773Z,99336.13
2022-08-05T06:57:57.166Z,99341.91
2022-08-05T07:00:25.945Z,99350.94
2022-08-05T07:03:13.303Z,99352.63
2022-08-05T07:06:14.326Z,99353.34
2022-08-05T07:09:04.221Z,99370.03
2022-08-05T07:11:55.716Z,99369.94
2022-08-05T07:15:05.703Z,99378.22
2022-08-05T07:18:07.139Z,99388.78
2022-08-05T07:20:57.683Z,99400.97
2022-08-05T07:23:49.967Z,99401.06
2022-08-05T07:26:40.181Z,99411.88
2022-08-05T07:30:27.815Z,99422.66
2022-08-05T07:32:37.123Z,99413.19
2022-08-05T07:36:01.747Z,99413.81
2022-08-05T07:38:35.376Z,99437.28
2022-08-05T07:42:13.425Z,99429.50
2022-08-05T07:44:40.214Z,99425.22
2022-08-05T07:47:39.645Z,99419.97
2022-08-05T07:50:29.920Z,99409.41
2022-08-05T07:53:21.003Z,99422.53
2022-08-05T07:57:00.793Z,99423.00
2022-08-05T07:59:15.981Z,99409.31
2022-08-05T08:02:04.764Z,99403.19
2022-08-05T08:04:52.320Z,99398.63
2022-08-05T08:07:59.731Z,99395.63
2022-08-05T08:10:49.046Z,99398.06
2022-08-05T08:13:42.951Z,99399.50
2022-08-05T08:16:51.410Z,99412.97
2022-08-05T08:20:21.965Z,99413.31
2022-08-05T08:22:54.321Z,99388.72
2022-08-05T08:26:02.188Z,99412.97
2022-08-05T08:28:55.155Z,99407.06
2022-08-05T08:31:47.215Z,99427.78
2022-08-05T08:34:35.793Z,99437.69
2022-08-05T08:37:25.233Z,99433.44
2022-08-05T08:40:15.599Z,99419.00
2022-08-05T08:45:19.455Z,99414.56
2022-08-05T08:46:15.590Z,99382.50
2022-08-05T08:50:22.855Z,99407.41
2022-08-05T08:52:15.841Z,99400.97
2022-08-05T08:55:13.249Z,99413.97
2022-08-05T08:58:02.249Z,99407.19
2022-08-05T09:00:51.607Z,99372.91
2022-08-05T09:03:45.204Z,99392.06
2022-08-05T09:06:33.412Z,99393.28
2022-08-05T09:09:23.935Z,99360.88
2022-08-05T09:12:20.414Z,99362.44
2022-08-05T09:15:17.439Z,99348.41
2022-08-05T09:18:09.255Z,99335.53
2022-08-05T09:20:57.271Z,99294.75
2022-08-05T09:23:47.212Z,99337.50
2022-08-05T09:26:34.829Z,99323.81
2022-08-05T09:29:47.727Z,99333.75
2022-08-05T09:32:41.297Z,99348.91
2022-08-05T09:35:34.204Z,99354.09
2022-08-05T09:38:27.577Z,99385.38
2022-08-05T09:41:17.055Z,99397.00
2022-08-05T09:44:05.125Z,99390.28
2022-08-05T09:47:10.416Z,99377.47
2022-08-05T09:50:02.129Z,99373.38
2022-08-05T09:52:59.765Z,99389.94
2022-08-05T09:55:57.697Z,99385.16
2022-08-05T09:59:00.969Z,99394.50
2022-08-05T10:01:57.991Z,99395.47
2022-08-05T10:04:48.466Z,99406.72
2022-08-05T10:08:35.031Z,99401.47
2022-08-05T10:11:01.211Z,99406.97
2022-08-05T10:13:54.626Z,99400.25
2022-08-05T10:16:52.525Z,99390.00
2022-08-05T10:20:03.192Z,99383.28
2022-08-05T10:22:51.277Z,99388.84
2022-08-05T10:25:38.950Z,99392.50
2022-08-05T10:28:29.112Z,99386.56
2022-08-05T10:32:48.367Z,99387.88
2022-08-05T10:34:31.142Z,99402.13
2022-08-05T10:37:19.715Z,99411.50
2022-08-05T10:40:22.427Z,99408.03
2022-08-05T10:43:38.458Z,99417.03
2022-08-05T10:46:44.414Z,99427.75
2022-08-05T10:49:33.272Z,99421.53
2022-08-05T10:52:49.523Z,99420.41
2022-08-05T10:56:07.972Z,99425.34
2022-08-05T11:00:01.066Z,99422.66
2022-08-05T11:02:37.620Z,99414.19
2022-08-05T11:05:29.123Z,99420.31
2022-08-05T11:08:36.685Z,99414.19
2022-08-05T11:11:44.266Z,99392.09
2022-08-05T11:17:59.858Z,99397.00
2022-08-05T11:20:52.478Z,99404.34
2022-08-05T11:24:03.784Z,99410.56
2022-08-05T11:27:50.082Z,99422.41
2022-08-05T11:31:57.404Z,99430.09
2022-08-05T11:34:52.242Z,99426.34
2022-08-05T11:38:28.239Z,99439.06
2022-08-05T11:41:34.679Z,99440.72
2022-08-05T11:44:40.517Z,99447.38
2022-08-05T11:47:49.701Z,99443.69
2022-08-05T11:50:39.796Z,99449.47
2022-08-05T11:53:27.429Z,99453.28
2022-08-05T11:56:21.650Z,99463.19
2022-08-05T11:59:41.249Z,99468.88
2022-08-05T12:02:40.200Z,99466.47
2022-08-05T12:05:39.545Z,99472.09
2022-08-05T12:08:32.751Z,99465.16
2022-08-05T12:11:23.190Z,99462.06
2022-08-05T12:14:10.901Z,99463.59
2022-08-05T12:17:00.212Z,99464.06
2022-08-05T12:20:27.016Z,99458.69
2022-08-05T12:23:12.809Z,99472.50
2022-08-05T12:26:01.333Z,99469.50
2022-08-05T12:28:49.684Z,99466.13
2022-08-05T12:31:47.609Z,99473.81
2022-08-05T12:34:39.844Z,99474.63
2022-08-05T12:37:32.310Z,99478.06
2022-08-05T12:40:26.746Z,99481.06
2022-08-05T12:43:21.162Z,99485.66
2022-08-05T12:46:12.507Z,99484.88
2022-08-05T12:49:05.790Z,99484.09
2022-08-05T12:52:12.789Z,99485.66
2022-08-05T12:55:22.237Z,99487.22
2022-08-05T12:58:49.663Z,99502.16
2022-08-05T13:02:01.518Z,99497.91
2022-08-05T13:04:52.326Z,99495.06
2022-08-05T13:07:59.532Z,99508.44
2022-08-05T13:10:50.721Z,99507.56
2022-08-05T13:14:05.296Z,99503.31
2022-08-05T13:16:56.663Z,99503.31
2022-08-05T13:20:00.910Z,99498.84
2022-08-05T13:22:53.190Z,99490.81
2022-08-05T13:25:52.343Z,99490.13
2022-08-05T13:28:46.876Z,99488.69
2022-08-05T13:32:04.199Z,99499.47
2022-08-05T13:34:42.767Z,99495.66
2022-08-05T13:37:34.735Z,99497.66
2022-08-05T13:40:48.132Z,99492.75
2022-08-05T13:43:43.373Z,99498.13
2022-08-05T13:46:44.329Z,99485.84
2022-08-05T13:49:45.348Z,99486.72
2022-08-05T13:52:35.878Z,99482.22
2022-08-05T13:55:41.139Z,99479.09
2022-08-05T13:58:31.216Z,99474.53
2022-08-05T14:01:18.853Z,99471.84
2022-08-05T14:04:26.744Z,99462.69
2022-08-05T14:07:56.344Z,99456.59
2022-08-05T14:10:28.929Z,99462.34
2022-08-05T14:13:18.634Z,99462.34
2022-08-05T14:16:11.856Z,99471.63
2022-08-05T14:19:05.090Z,99467.72
2022-08-05T14:22:10.416Z,99463.94
2022-08-05T14:25:00.354Z,99465.47
2022-08-05T14:27:51.089Z,99460.91
2022-08-05T14:30:38.675Z,99457.09
2022-08-05T14:33:59.381Z,99450.28
2022-08-05T14:36:41.875Z,99457.22
2022-08-05T14:39:49.545Z,99457.31
2022-08-05T14:42:42.179Z,99441.25
2022-08-05T14:45:31.502Z,99451.19
2022-08-05T14:48:32.692Z,99450.75
2022-08-05T14:51:21.830Z,99450.06
2022-08-05T14:54:27.824Z,99455.09
2022-08-05T14:57:18.334Z,99452.03
2022-08-05T15:00:07.995Z,99450.84
2022-08-05T15:02:59.529Z,99465.69
2022-08-05T15:06:12.982Z,99456.47
2022-08-05T15:08:59.390Z,99450.28
2022-08-05T15:11:53.665Z,99459.56
2022-08-05T15:14:41.421Z,99460.78
2022-08-05T15:17:47.271Z,99462.56
2022-08-05T15:20:41.027Z,99468.59
2022-08-05T15:23:29.736Z,99472.03
2022-08-05T15:26:31.940Z,99479.31
2022-08-05T15:29:20.116Z,99479.22
2022-08-05T15:32:10.152Z,99476.00
2022-08-05T15:34:57.996Z,99482.72
2022-08-05T15:38:34.386Z,99494.78
2022-08-05T15:41:20.208Z,99496.59
2022-08-05T15:44:03.379Z,99505.56
2022-08-05T15:46:53.025Z,99502.78
2022-08-05T15:49:56.555Z,99507.38
2022-08-05T15:52:53.163Z,99507.59
2022-08-05T15:56:04.118Z,99513.19
2022-08-05T15:58:51.919Z,99524.97
2022-08-05T16:01:52.587Z,99523.91
2022-08-05T16:04:41.362Z,99523.91
2022-08-05T16:07:30.142Z,99539.03
2022-08-05T16:10:23.273Z,99540.81
2022-08-05T16:13:13.402Z,99543.28
2022-08-05T16:16:12.307Z,99544.63
2022-08-05T16:19:00.382Z,99562.06
2022-08-05T16:21:58.627Z,99558.03
2022-08-05T16:24:51.223Z,99554.69
2022-08-05T16:28:00.534Z,99562.94
2022-08-05T16:30:50.465Z,99563.03
2022-08-05T16:33:41.520Z,99569.03
2022-08-05T16:36:29.884Z,99565.34
2022-08-05T16:39:18.664Z,99568.38
2022-08-05T16:42:14.868Z,99571.03
2022-08-05T16:46:06.598Z,99574.03
2022-08-05T16:48:25.183Z,99580.75
2022-08-05T16:51:15.924Z,99580.06
2022-08-05T16:54:09.891Z,99579.16
2022-08-05T16:57:03.946Z,99586.63
2022-08-05T17:00:08.359Z,99580.47
2022-08-05T17:02:59.550Z,99580.16
2022-08-05T17:05:51.837Z,99596.28
2022-08-05T17:08:53.388Z,99598.19
2022-08-05T17:11:46.069Z,99598.72
2022-08-05T17:14:38.344Z,99602.75
2022-08-05T17:17:42.063Z,99597.88
2022-08-05T17:20:32.703Z,99613.34
2022-08-05T17:24:04.936Z,99611.34
2022-08-05T17:26:28.562Z,99609.78
2022-08-05T17:29:22.573Z,99606.22
2022-08-05T17:32:20.909Z,99608.31
2022-08-05T17:35:10.526Z,99614.97
2022-08-05T17:38:04.910Z,99612.47
2022-08-05T17:40:53.108Z,99617.06
2022-08-05T17:43:46.694Z,99617.56
2022-08-05T17:46:35.557Z,99624.81
2022-08-05T17:49:23.874Z,99621.03
2022-08-05T17:52:14.369Z,99612.13
2022-08-05T17:55:08.021Z,99623.88
2022-08-05T17:57:57.567Z,99623.56
2022-08-05T18:00:50.646Z,99625.00
2022-08-05T18:03:59.308Z,99632.22
2022-08-05T18:06:51.950Z,99652.03
2022-08-05T18:09:59.722Z,99646.25
2022-08-05T18:12:53.984Z,99654.63
2022-08-05T18:15:43.781Z,99644.91
2022-08-05T18:18:39.664Z,99655.44
2022-08-05T18:22:07.530Z,99671.34
2022-08-05T18:24:47.113Z,99676.41
2022-08-05T18:27:42.342Z,99679.56
2022-08-05T18:30:43.370Z,99695.00
2022-08-05T18:33:46.691Z,99701.44
2022-08-05T18:36:38.457Z,99696.28
2022-08-05T18:40:29.643Z,99704.59
2022-08-05T18:42:38.927Z,99697.59
2022-08-05T18:45:41.311Z,99710.66
2022-08-05T18:48:41.862Z,99712.56
2022-08-05T18:52:04.188Z,99723.91
2022-08-05T18:54:58.718Z,99726.13
2022-08-05T18:58:03.408Z,99728.16
2022-08-05T19:00:54.180Z,99727.72
2022-08-05T19:03:54.900Z,99728.50
2022-08-05T19:06:45.538Z,99736.81
2022-08-05T19:09:42.989Z,99747.47
2022-08-05T19:12:33.719Z,99760.31
2022-08-05T19:15:57.908Z,99762.06
2022-08-05T19:18:38.488Z,99764.72
2022-08-05T19:21:34.738Z,99787.44
2022-08-05T19:24:34.880Z,99792.94
2022-08-05T19:27:36.984Z,99798.41
2022-08-05T19:30:24.814Z,99813.47
2022-08-05T19:33:12.930Z,99817.88
2022-08-05T19:36:08.865Z,99826.16
2022-08-05T19:39:04.205Z,99825.38
2022-08-05T19:42:05.662Z,99829.16
2022-08-05T19:44:57.002Z,99827.59
2022-08-05T19:47:48.453Z,99836.19
2022-08-05T19:50:47.838Z,99834.00
2022-08-05T19:54:03.561Z,99832.28
2022-08-05T19:56:48.478Z,99849.03
2022-08-05T19:59:56.618Z,99847.78
2022-08-05T20:03:01.056Z,99846.97
2022-08-05T20:05:58.873Z,99857.56
2022-08-05T20:09:13.642Z,99852.88
2022-08-05T20:12:06.493Z,99863.19
2022-08-05T20:14:58.405Z,99863.81
2022-08-05T20:17:49.974Z,99861.44
2022-08-05T20:23:57.246Z,99877.09
2022-08-05T20:26:48.255Z,99877.69
2022-08-05T20:29:57.525Z,99875.94
2022-08-05T20:32:46.651Z,99885.63
2022-08-05T20:35:40.572Z,99884.03
2022-08-05T20:38:40.761Z,99887.31
2022-08-05T20:41:45.290Z,99884.94
2022-08-05T20:44:42.368Z,99900.09
2022-08-05T20:47:42.717Z,99905.72
2022-08-05T20:50:33.764Z,99914.50
2022-08-05T20:53:36.554Z,99914.00
2022-08-05T20:56:31.900Z,99925.75
2022-08-05T20:59:26.885Z,99912.44
2022-08-05T21:02:18.074Z,99926.03
2022-08-05T21:05:11.183Z,99915.53
2022-08-05T21:07:59.480Z,99928.34
2022-08-05T21:10:48.811Z,99933.47
2022-08-05T21:13:47.745Z,99943.34
2022-08-05T21:16:45.677Z,99947.69
2022-08-05T21:19:47.502Z,99945.66
2022-08-05T21:22:39.335Z,99946.44
2022-08-05T21:25:33.529Z,99952.03
2022-08-05T21:28:24.005Z,99958.75
2022-08-05T21:31:18.328Z,99957.00
2022-08-05T21:34:06.554Z,99959.19
2022-08-05T21:36:55.571Z,99961.84
2022-08-05T21:39:44.793Z,99964.53
2022-08-05T21:42:44.067Z,99959.19
2022-08-05T21:45:56.748Z,99954.94
2022-08-05T21:48:40.799Z,99965.88
2022-08-05T21:52:22.483Z,99964.63
2022-08-05T21:54:38.503Z,99960.97
2022-08-05T21:57:31.165Z,99966.38
2022-08-05T22:00:20.160Z,99964.34
2022-08-05T22:03:14.669Z,99974.50
2022-08-05T22:06:02.334Z,99961.00
2022-08-05T22:08:53.469Z,99986.81
2022-08-05T22:11:43.566Z,99986.44
2022-08-05T22:14:37.907Z,99985.47
2022-08-05T22:17:26.975Z,99988.22
2022-08-05T22:20:16.665Z,99984.31
2022-08-05T22:23:23.225Z,99983.81
2022-08-05T22:26:28.774Z,99993.16
2022-08-05T22:29:17.569Z,99994.56
2022-08-05T22:32:09.944Z,99990.63
2022-08-05T22:35:01.066Z,99994.84
2022-08-05T22:37:58.997Z,100004.50
2022-08-05T22:40:49.642Z,100006.16
2022-08-05T22:43:38.422Z,100007.56
2022-08-05T22:46:26.635Z,100014.75
2022-08-05T22:50:18.180Z,100014.25
2022-08-05T22:52:32.453Z,100030.78
2022-08-05T22:55:24.306Z,100026.03
2022-08-05T22:58:14.533Z,100026.63
2022-08-05T23:01:02.621Z,100019.22
2022-08-05T23:03:58.314Z,100032.34
2022-08-05T23:06:52.008Z,100034.59
2022-08-05T23:09:57.404Z,100040.00
2022-08-05T23:12:47.917Z,100038.25
2022-08-05T23:15:39.797Z,100036.16
2022-08-05T23:18:27.797Z,100043.94
2022-08-05T23:21:16.455Z,100040.28
2022-08-05T23:24:11.376Z,100047.56
2022-08-05T23:26:59.974Z,100056.09
2022-08-05T23:29:50.575Z,100059.91
2022-08-05T23:32:45.003Z,100056.28
2022-08-05T23:35:34.448Z,100066.66
2022-08-05T23:38:22.819Z,100063.28
2022-08-05T23:41:13.347Z,100064.38
2022-08-05T23:44:04.918Z,100073.91
2022-08-05T23:46:55.079Z,100079.22
2022-08-05T23:49:45.531Z,100084.25
2022-08-05T23:52:35.965Z,100086.69
2022-08-05T23:55:38.389Z,100087.00
2022-08-05T23:58:31.959Z,100085.91
